sensor_id;sensor_type;location;lat;lon;timestamp;P1;durP1;ratioP1;P2;durP2;ratioP2
71648;SDS011;70112;45.624;11.760;2024-01-30T00:02:18;53.10;;;33.80;;
71648;SDS011;70112;45.624;11.760;2024-01-30T00:04:59;55.30;;;35.40;;
71648;SDS011;70112;45.624;11.760;2024-01-30T00:07:37;57.00;;;34.60;;
71648;SDS011;70112;45.624;11.760;2024-01-30T00:13:02;58.20;;;34.30;;
71648;SDS011;70112;45.624;11.760;2024-01-30T00:16:22;54.50;;;34.60;;
71648;SDS011;70112;45.624;11.760;2024-01-30T00:19:21;57.20;;;36.90;;
71648;SDS011;70112;45.624;11.760;2024-01-30T00:25:39;57.20;;;35.30;;
71648;SDS011;70112;45.624;11.760;2024-01-30T00:28:49;64.70;;;39.70;;
71648;SDS011;70112;45.624;11.760;2024-01-30T00:31:16;61.50;;;37.90;;
71648;SDS011;70112;45.624;11.760;2024-01-30T00:33:52;67.90;;;40.90;;
71648;SDS011;70112;45.624;11.760;2024-01-30T00:36:32;60.30;;;36.30;;
71648;SDS011;70112;45.624;11.760;2024-01-30T00:39:19;59.70;;;37.40;;
71648;SDS011;70112;45.624;11.760;2024-01-30T00:41:54;50.10;;;32.50;;
71648;SDS011;70112;45.624;11.760;2024-01-30T00:44:25;59.30;;;34.70;;
71648;SDS011;70112;45.624;11.760;2024-01-30T00:47:01;48.00;;;32.40;;
71648;SDS011;70112;45.624;11.760;2024-01-30T00:49:56;44.90;;;30.00;;
71648;SDS011;70112;45.624;11.760;2024-01-30T00:52:24;45.70;;;31.40;;
71648;SDS011;70112;45.624;11.760;2024-01-30T00:58:56;39.80;;;27.80;;
71648;SDS011;70112;45.624;11.760;2024-01-30T01:01:45;40.10;;;27.60;;
71648;SDS011;70112;45.624;11.760;2024-01-30T01:05:12;37.50;;;27.20;;
71648;SDS011;70112;45.624;11.760;2024-01-30T01:08:00;35.20;;;25.50;;
71648;SDS011;70112;45.624;11.760;2024-01-30T01:10:51;37.80;;;27.20;;
71648;SDS011;70112;45.624;11.760;2024-01-30T01:13:54;41.90;;;27.80;;
71648;SDS011;70112;45.624;11.760;2024-01-30T01:16:48;37.80;;;25.90;;
71648;SDS011;70112;45.624;11.760;2024-01-30T01:19:19;42.50;;;28.90;;
71648;SDS011;70112;45.624;11.760;2024-01-30T01:21:53;45.80;;;31.20;;
71648;SDS011;70112;45.624;11.760;2024-01-30T01:33:56;44.50;;;29.50;;
71648;SDS011;70112;45.624;11.760;2024-01-30T01:36:24;41.10;;;28.00;;
71648;SDS011;70112;45.624;11.760;2024-01-30T01:39:04;44.80;;;30.60;;
71648;SDS011;70112;45.624;11.760;2024-01-30T01:41:31;40.20;;;27.80;;
71648;SDS011;70112;45.624;11.760;2024-01-30T01:43:58;45.80;;;30.50;;
71648;SDS011;70112;45.624;11.760;2024-01-30T01:46:26;47.70;;;30.70;;
71648;SDS011;70112;45.624;11.760;2024-01-30T01:48:53;51.30;;;32.50;;
71648;SDS011;70112;45.624;11.760;2024-01-30T01:51:24;51.30;;;33.70;;
71648;SDS011;70112;45.624;11.760;2024-01-30T01:57:19;43.90;;;30.70;;
71648;SDS011;70112;45.624;11.760;2024-01-30T02:00:08;46.70;;;31.20;;
71648;SDS011;70112;45.624;11.760;2024-01-30T02:03:18;42.40;;;28.30;;
71648;SDS011;70112;45.624;11.760;2024-01-30T02:09:37;42.70;;;29.00;;
71648;SDS011;70112;45.624;11.760;2024-01-30T02:12:16;39.50;;;28.50;;
71648;SDS011;70112;45.624;11.760;2024-01-30T02:18:02;43.30;;;27.70;;
71648;SDS011;70112;45.624;11.760;2024-01-30T02:20:31;38.90;;;27.90;;
71648;SDS011;70112;45.624;11.760;2024-01-30T02:23:28;40.20;;;27.50;;
71648;SDS011;70112;45.624;11.760;2024-01-30T02:26:28;39.50;;;27.60;;
71648;SDS011;70112;45.624;11.760;2024-01-30T02:28:54;36.70;;;26.50;;
71648;SDS011;70112;45.624;11.760;2024-01-30T02:31:59;37.20;;;27.30;;
71648;SDS011;70112;45.624;11.760;2024-01-30T02:44:07;39.40;;;26.20;;
71648;SDS011;70112;45.624;11.760;2024-01-30T02:46:58;39.50;;;28.00;;
71648;SDS011;70112;45.624;11.760;2024-01-30T02:50:10;39.10;;;25.50;;
71648;SDS011;70112;45.624;11.760;2024-01-30T02:53:11;40.60;;;26.30;;
71648;SDS011;70112;45.624;11.760;2024-01-30T02:59:42;43.50;;;29.10;;
71648;SDS011;70112;45.624;11.760;2024-01-30T03:05:42;47.10;;;28.30;;
71648;SDS011;70112;45.624;11.760;2024-01-30T03:08:54;42.80;;;28.00;;
71648;SDS011;70112;45.624;11.760;2024-01-30T03:15:31;38.50;;;27.20;;
71648;SDS011;70112;45.624;11.760;2024-01-30T03:18:10;41.70;;;27.80;;
71648;SDS011;70112;45.624;11.760;2024-01-30T03:20:48;43.80;;;28.80;;
71648;SDS011;70112;45.624;11.760;2024-01-30T03:24:01;46.00;;;28.10;;
71648;SDS011;70112;45.624;11.760;2024-01-30T03:29:20;41.80;;;28.80;;
71648;SDS011;70112;45.624;11.760;2024-01-30T03:32:06;47.10;;;29.80;;
71648;SDS011;70112;45.624;11.760;2024-01-30T03:34:47;43.90;;;30.30;;
71648;SDS011;70112;45.624;11.760;2024-01-30T03:37:54;44.00;;;29.50;;
71648;SDS011;70112;45.624;11.760;2024-01-30T03:40:29;48.90;;;27.90;;
71648;SDS011;70112;45.624;11.760;2024-01-30T03:43:30;45.10;;;29.70;;
71648;SDS011;70112;45.624;11.760;2024-01-30T03:49:55;45.30;;;28.90;;
71648;SDS011;70112;45.624;11.760;2024-01-30T03:52:44;39.40;;;26.80;;
71648;SDS011;70112;45.624;11.760;2024-01-30T03:56:03;46.10;;;28.80;;
71648;SDS011;70112;45.624;11.760;2024-01-30T03:59:25;47.00;;;30.50;;
71648;SDS011;70112;45.624;11.760;2024-01-30T04:08:58;45.20;;;28.30;;
71648;SDS011;70112;45.624;11.760;2024-01-30T04:14:54;53.50;;;32.10;;
71648;SDS011;70112;45.624;11.760;2024-01-30T04:34:52;43.20;;;27.90;;
71648;SDS011;70112;45.624;11.760;2024-01-30T04:37:52;50.60;;;31.30;;
71648;SDS011;70112;45.624;11.760;2024-01-30T04:40:27;48.80;;;32.30;;
71648;SDS011;70112;45.624;11.760;2024-01-30T04:43:23;51.10;;;31.50;;
71648;SDS011;70112;45.624;11.760;2024-01-30T04:45:49;61.10;;;37.60;;
71648;SDS011;70112;45.624;11.760;2024-01-30T04:48:23;65.00;;;38.60;;
71648;SDS011;70112;45.624;11.760;2024-01-30T04:51:12;61.30;;;37.00;;
71648;SDS011;70112;45.624;11.760;2024-01-30T04:53:57;61.20;;;37.10;;
71648;SDS011;70112;45.624;11.760;2024-01-30T04:56:31;63.20;;;37.90;;
71648;SDS011;70112;45.624;11.760;2024-01-30T04:59:04;62.10;;;36.30;;
71648;SDS011;70112;45.624;11.760;2024-01-30T05:01:33;58.60;;;35.60;;
71648;SDS011;70112;45.624;11.760;2024-01-30T05:04:12;59.70;;;37.40;;
71648;SDS011;70112;45.624;11.760;2024-01-30T05:09:56;66.20;;;37.00;;
71648;SDS011;70112;45.624;11.760;2024-01-30T05:12:22;83.30;;;46.40;;
71648;SDS011;70112;45.624;11.760;2024-01-30T05:14:53;85.10;;;47.90;;
71648;SDS011;70112;45.624;11.760;2024-01-30T05:17:33;73.70;;;43.20;;
71648;SDS011;70112;45.624;11.760;2024-01-30T05:20:02;80.10;;;45.80;;
71648;SDS011;70112;45.624;11.760;2024-01-30T05:22:41;82.00;;;47.10;;
71648;SDS011;70112;45.624;11.760;2024-01-30T05:25:41;78.90;;;47.20;;
71648;SDS011;70112;45.624;11.760;2024-01-30T05:31:54;64.20;;;36.80;;
71648;SDS011;70112;45.624;11.760;2024-01-30T05:34:56;57.60;;;34.30;;
71648;SDS011;70112;45.624;11.760;2024-01-30T05:37:32;55.80;;;37.30;;
71648;SDS011;70112;45.624;11.760;2024-01-30T05:40:05;57.40;;;35.10;;
71648;SDS011;70112;45.624;11.760;2024-01-30T05:43:19;52.70;;;33.90;;
71648;SDS011;70112;45.624;11.760;2024-01-30T05:46:27;53.70;;;33.10;;
71648;SDS011;70112;45.624;11.760;2024-01-30T05:49:27;51.10;;;31.00;;
71648;SDS011;70112;45.624;11.760;2024-01-30T05:52:10;50.90;;;32.40;;
71648;SDS011;70112;45.624;11.760;2024-01-30T06:01:23;48.20;;;31.50;;
71648;SDS011;70112;45.624;11.760;2024-01-30T06:04:14;53.60;;;31.50;;
71648;SDS011;70112;45.624;11.760;2024-01-30T06:10:24;49.00;;;32.30;;
71648;SDS011;70112;45.624;11.760;2024-01-30T06:14:01;43.80;;;30.50;;
71648;SDS011;70112;45.624;11.760;2024-01-30T06:19:31;51.50;;;33.30;;
71648;SDS011;70112;45.624;11.760;2024-01-30T06:22:33;48.60;;;31.50;;
71648;SDS011;70112;45.624;11.760;2024-01-30T06:25:29;46.40;;;29.60;;
71648;SDS011;70112;45.624;11.760;2024-01-30T06:31:46;46.60;;;28.50;;
71648;SDS011;70112;45.624;11.760;2024-01-30T06:35:11;42.50;;;27.60;;
71648;SDS011;70112;45.624;11.760;2024-01-30T06:37:58;45.60;;;28.70;;
71648;SDS011;70112;45.624;11.760;2024-01-30T06:40:47;47.80;;;31.40;;
71648;SDS011;70112;45.624;11.760;2024-01-30T06:44:17;44.60;;;28.30;;
71648;SDS011;70112;45.624;11.760;2024-01-30T06:47:30;44.70;;;27.90;;
71648;SDS011;70112;45.624;11.760;2024-01-30T06:50:24;42.50;;;26.90;;
71648;SDS011;70112;45.624;11.760;2024-01-30T07:00:10;60.70;;;32.10;;
71648;SDS011;70112;45.624;11.760;2024-01-30T07:03:20;47.20;;;30.50;;
71648;SDS011;70112;45.624;11.760;2024-01-30T07:06:38;48.00;;;30.90;;
71648;SDS011;70112;45.624;11.760;2024-01-30T07:10:16;40.40;;;28.40;;
71648;SDS011;70112;45.624;11.760;2024-01-30T07:13:25;39.70;;;27.10;;
71648;SDS011;70112;45.624;11.760;2024-01-30T07:19:37;47.40;;;31.90;;
71648;SDS011;70112;45.624;11.760;2024-01-30T07:22:11;45.30;;;30.50;;
71648;SDS011;70112;45.624;11.760;2024-01-30T07:28:13;39.40;;;27.50;;
71648;SDS011;70112;45.624;11.760;2024-01-30T07:30:53;37.40;;;24.90;;
71648;SDS011;70112;45.624;11.760;2024-01-30T07:39:48;40.50;;;26.70;;
71648;SDS011;70112;45.624;11.760;2024-01-30T07:49:59;38.30;;;24.80;;
71648;SDS011;70112;45.624;11.760;2024-01-30T07:59:51;28.20;;;20.90;;
71648;SDS011;70112;45.624;11.760;2024-01-30T08:02:42;31.40;;;23.00;;
71648;SDS011;70112;45.624;11.760;2024-01-30T08:05:23;31.60;;;22.00;;
71648;SDS011;70112;45.624;11.760;2024-01-30T08:08:05;33.10;;;21.30;;
71648;SDS011;70112;45.624;11.760;2024-01-30T08:10:54;29.80;;;21.40;;
71648;SDS011;70112;45.624;11.760;2024-01-30T08:14:03;34.70;;;23.30;;
71648;SDS011;70112;45.624;11.760;2024-01-30T08:17:11;33.80;;;23.30;;
71648;SDS011;70112;45.624;11.760;2024-01-30T08:23:03;37.50;;;26.20;;
71648;SDS011;70112;45.624;11.760;2024-01-30T08:26:37;38.70;;;26.90;;
71648;SDS011;70112;45.624;11.760;2024-01-30T08:29:02;40.60;;;25.80;;
71648;SDS011;70112;45.624;11.760;2024-01-30T08:31:37;37.00;;;26.50;;
71648;SDS011;70112;45.624;11.760;2024-01-30T08:34:47;33.70;;;24.20;;
71648;SDS011;70112;45.624;11.760;2024-01-30T08:37:25;37.60;;;25.10;;
71648;SDS011;70112;45.624;11.760;2024-01-30T08:43:02;30.80;;;21.30;;
71648;SDS011;70112;45.624;11.760;2024-01-30T08:45:49;41.00;;;26.60;;
71648;SDS011;70112;45.624;11.760;2024-01-30T08:48:35;40.80;;;26.30;;
71648;SDS011;70112;45.624;11.760;2024-01-30T08:51:21;33.20;;;24.30;;
71648;SDS011;70112;45.624;11.760;2024-01-30T08:53:50;46.70;;;25.20;;
71648;SDS011;70112;45.624;11.760;2024-01-30T08:56:18;44.40;;;26.40;;
71648;SDS011;70112;45.624;11.760;2024-01-30T08:58:49;62.40;;;25.90;;
71648;SDS011;70112;45.624;11.760;2024-01-30T09:01:15;39.20;;;24.30;;
71648;SDS011;70112;45.624;11.760;2024-01-30T09:03:41;33.90;;;23.50;;
71648;SDS011;70112;45.624;11.760;2024-01-30T09:06:14;32.60;;;25.20;;
71648;SDS011;70112;45.624;11.760;2024-01-30T09:08:51;32.30;;;24.70;;
71648;SDS011;70112;45.624;11.760;2024-01-30T09:11:16;36.10;;;24.50;;
71648;SDS011;70112;45.624;11.760;2024-01-30T09:13:42;45.20;;;24.50;;
71648;SDS011;70112;45.624;11.760;2024-01-30T09:16:08;40.40;;;26.10;;
71648;SDS011;70112;45.624;11.760;2024-01-30T09:18:34;46.60;;;24.90;;
71648;SDS011;70112;45.624;11.760;2024-01-30T09:21:00;39.00;;;25.60;;
71648;SDS011;70112;45.624;11.760;2024-01-30T09:23:27;39.30;;;25.40;;
71648;SDS011;70112;45.624;11.760;2024-01-30T09:25:53;44.10;;;25.60;;
71648;SDS011;70112;45.624;11.760;2024-01-30T09:28:18;49.70;;;25.80;;
71648;SDS011;70112;45.624;11.760;2024-01-30T09:30:44;47.00;;;25.50;;
71648;SDS011;70112;45.624;11.760;2024-01-30T09:33:09;38.90;;;23.70;;
71648;SDS011;70112;45.624;11.760;2024-01-30T09:35:38;44.10;;;24.60;;
71648;SDS011;70112;45.624;11.760;2024-01-30T09:38:04;38.20;;;25.10;;
71648;SDS011;70112;45.624;11.760;2024-01-30T09:40:29;31.00;;;23.30;;
71648;SDS011;70112;45.624;11.760;2024-01-30T09:42:55;29.70;;;23.70;;
71648;SDS011;70112;45.624;11.760;2024-01-30T09:45:25;32.90;;;24.50;;
71648;SDS011;70112;45.624;11.760;2024-01-30T09:47:51;28.80;;;23.70;;
71648;SDS011;70112;45.624;11.760;2024-01-30T09:50:18;30.90;;;23.80;;
71648;SDS011;70112;45.624;11.760;2024-01-30T09:52:45;29.10;;;23.40;;
71648;SDS011;70112;45.624;11.760;2024-01-30T09:55:12;24.00;;;21.60;;
71648;SDS011;70112;45.624;11.760;2024-01-30T09:57:38;39.20;;;24.00;;
71648;SDS011;70112;45.624;11.760;2024-01-30T10:00:06;36.80;;;23.20;;
71648;SDS011;70112;45.624;11.760;2024-01-30T10:02:35;25.90;;;22.10;;
71648;SDS011;70112;45.624;11.760;2024-01-30T10:05:01;26.00;;;21.60;;
71648;SDS011;70112;45.624;11.760;2024-01-30T10:07:27;24.80;;;21.30;;
71648;SDS011;70112;45.624;11.760;2024-01-30T10:09:53;28.60;;;22.40;;
71648;SDS011;70112;45.624;11.760;2024-01-30T10:12:22;28.40;;;20.60;;
71648;SDS011;70112;45.624;11.760;2024-01-30T10:14:48;24.00;;;19.40;;
71648;SDS011;70112;45.624;11.760;2024-01-30T10:17:13;29.50;;;19.80;;
71648;SDS011;70112;45.624;11.760;2024-01-30T10:19:40;47.00;;;21.70;;
71648;SDS011;70112;45.624;11.760;2024-01-30T10:22:09;35.60;;;23.40;;
71648;SDS011;70112;45.624;11.760;2024-01-30T10:24:35;34.60;;;24.00;;
71648;SDS011;70112;45.624;11.760;2024-01-30T10:27:08;32.40;;;24.00;;
71648;SDS011;70112;45.624;11.760;2024-01-30T10:29:39;29.40;;;23.70;;
71648;SDS011;70112;45.624;11.760;2024-01-30T10:32:12;30.30;;;24.20;;
71648;SDS011;70112;45.624;11.760;2024-01-30T10:34:54;33.10;;;26.50;;
71648;SDS011;70112;45.624;11.760;2024-01-30T10:37:26;28.20;;;23.60;;
71648;SDS011;70112;45.624;11.760;2024-01-30T10:39:53;32.50;;;25.20;;
71648;SDS011;70112;45.624;11.760;2024-01-30T10:42:25;38.30;;;27.40;;
71648;SDS011;70112;45.624;11.760;2024-01-30T10:47:29;42.30;;;31.20;;
71648;SDS011;70112;45.624;11.760;2024-01-30T10:49:56;70.90;;;41.70;;
71648;SDS011;70112;45.624;11.760;2024-01-30T10:52:25;56.30;;;39.10;;
71648;SDS011;70112;45.624;11.760;2024-01-30T10:54:53;60.10;;;37.30;;
71648;SDS011;70112;45.624;11.760;2024-01-30T10:57:28;37.40;;;28.40;;
71648;SDS011;70112;45.624;11.760;2024-01-30T11:00:10;46.00;;;31.10;;
71648;SDS011;70112;45.624;11.760;2024-01-30T11:02:40;38.70;;;26.50;;
71648;SDS011;70112;45.624;11.760;2024-01-30T11:05:09;36.00;;;24.60;;
71648;SDS011;70112;45.624;11.760;2024-01-30T11:07:35;164.60;;;32.80;;
71648;SDS011;70112;45.624;11.760;2024-01-30T11:10:06;67.30;;;26.10;;
71648;SDS011;70112;45.624;11.760;2024-01-30T11:12:42;31.90;;;19.40;;
71648;SDS011;70112;45.624;11.760;2024-01-30T11:15:37;28.30;;;20.80;;
71648;SDS011;70112;45.624;11.760;2024-01-30T11:18:03;26.80;;;19.30;;
71648;SDS011;70112;45.624;11.760;2024-01-30T11:20:40;31.00;;;20.40;;
71648;SDS011;70112;45.624;11.760;2024-01-30T11:23:12;29.10;;;19.80;;
71648;SDS011;70112;45.624;11.760;2024-01-30T11:25:37;30.90;;;21.10;;
71648;SDS011;70112;45.624;11.760;2024-01-30T11:28:14;31.00;;;20.50;;
71648;SDS011;70112;45.624;11.760;2024-01-30T11:31:02;27.70;;;19.80;;
71648;SDS011;70112;45.624;11.760;2024-01-30T11:33:39;29.50;;;19.50;;
71648;SDS011;70112;45.624;11.760;2024-01-30T11:36:17;28.00;;;19.40;;
71648;SDS011;70112;45.624;11.760;2024-01-30T12:32:25;32.20;;;21.90;;
71648;SDS011;70112;45.624;11.760;2024-01-30T12:34:55;28.90;;;21.30;;
71648;SDS011;70112;45.624;11.760;2024-01-30T12:37:22;31.20;;;22.40;;
71648;SDS011;70112;45.624;11.760;2024-01-30T12:39:50;36.30;;;23.30;;
71648;SDS011;70112;45.624;11.760;2024-01-30T12:42:23;31.20;;;22.60;;
71648;SDS011;70112;45.624;11.760;2024-01-30T12:44:49;33.50;;;21.70;;
71648;SDS011;70112;45.624;11.760;2024-01-30T12:47:15;29.10;;;21.80;;
71648;SDS011;70112;45.624;11.760;2024-01-30T12:49:43;30.00;;;21.30;;
71648;SDS011;70112;45.624;11.760;2024-01-30T12:52:10;37.10;;;23.90;;
71648;SDS011;70112;45.624;11.760;2024-01-30T12:54:37;32.50;;;24.70;;
71648;SDS011;70112;45.624;11.760;2024-01-30T12:57:04;36.70;;;24.00;;
71648;SDS011;70112;45.624;11.760;2024-01-30T12:59:33;33.70;;;24.50;;
71648;SDS011;70112;45.624;11.760;2024-01-30T13:02:00;38.70;;;26.40;;
71648;SDS011;70112;45.624;11.760;2024-01-30T13:04:28;35.80;;;24.10;;
71648;SDS011;70112;45.624;11.760;2024-01-30T13:06:59;35.70;;;24.40;;
71648;SDS011;70112;45.624;11.760;2024-01-30T13:09:29;34.00;;;23.70;;
71648;SDS011;70112;45.624;11.760;2024-01-30T13:11:58;36.10;;;26.50;;
71648;SDS011;70112;45.624;11.760;2024-01-30T13:14:30;39.60;;;25.70;;
71648;SDS011;70112;45.624;11.760;2024-01-30T13:16:56;37.30;;;26.00;;
71648;SDS011;70112;45.624;11.760;2024-01-30T13:19:24;33.50;;;24.40;;
71648;SDS011;70112;45.624;11.760;2024-01-30T13:21:49;35.90;;;25.00;;
71648;SDS011;70112;45.624;11.760;2024-01-30T13:24:15;40.10;;;25.50;;
71648;SDS011;70112;45.624;11.760;2024-01-30T13:26:42;37.00;;;24.60;;
71648;SDS011;70112;45.624;11.760;2024-01-30T13:29:09;51.00;;;26.00;;
71648;SDS011;70112;45.624;11.760;2024-01-30T13:31:43;41.50;;;27.40;;
71648;SDS011;70112;45.624;11.760;2024-01-30T13:34:11;32.80;;;23.10;;
71648;SDS011;70112;45.624;11.760;2024-01-30T13:36:38;32.40;;;22.90;;
71648;SDS011;70112;45.624;11.760;2024-01-30T13:39:03;33.40;;;24.00;;
71648;SDS011;70112;45.624;11.760;2024-01-30T13:41:35;35.80;;;24.10;;
71648;SDS011;70112;45.624;11.760;2024-01-30T13:44:01;33.50;;;25.00;;
71648;SDS011;70112;45.624;11.760;2024-01-30T13:46:29;38.10;;;24.70;;
71648;SDS011;70112;45.624;11.760;2024-01-30T13:48:55;40.20;;;25.40;;
71648;SDS011;70112;45.624;11.760;2024-01-30T13:51:21;40.90;;;27.30;;
71648;SDS011;70112;45.624;11.760;2024-01-30T13:53:47;36.80;;;25.40;;
71648;SDS011;70112;45.624;11.760;2024-01-30T13:56:16;37.20;;;24.00;;
71648;SDS011;70112;45.624;11.760;2024-01-30T13:58:42;40.30;;;25.60;;
71648;SDS011;70112;45.624;11.760;2024-01-30T14:01:08;35.00;;;23.10;;
71648;SDS011;70112;45.624;11.760;2024-01-30T14:03:42;34.70;;;23.20;;
71648;SDS011;70112;45.624;11.760;2024-01-30T14:06:12;33.80;;;22.60;;
71648;SDS011;70112;45.624;11.760;2024-01-30T14:08:38;38.70;;;24.20;;
71648;SDS011;70112;45.624;11.760;2024-01-30T14:11:09;38.90;;;26.50;;
71648;SDS011;70112;45.624;11.760;2024-01-30T14:13:35;41.90;;;26.70;;
71648;SDS011;70112;45.624;11.760;2024-01-30T14:16:00;36.90;;;25.40;;
71648;SDS011;70112;45.624;11.760;2024-01-30T14:18:32;36.40;;;25.10;;
71648;SDS011;70112;45.624;11.760;2024-01-30T14:23:32;36.40;;;25.60;;
71648;SDS011;70112;45.624;11.760;2024-01-30T14:26:05;37.00;;;26.70;;
71648;SDS011;70112;45.624;11.760;2024-01-30T14:28:40;38.30;;;25.40;;
71648;SDS011;70112;45.624;11.760;2024-01-30T14:31:11;39.60;;;26.80;;
71648;SDS011;70112;45.624;11.760;2024-01-30T14:33:36;38.70;;;27.10;;
71648;SDS011;70112;45.624;11.760;2024-01-30T14:36:05;42.40;;;28.60;;
71648;SDS011;70112;45.624;11.760;2024-01-30T14:38:30;56.80;;;34.80;;
71648;SDS011;70112;45.624;11.760;2024-01-30T14:40:56;49.70;;;31.70;;
71648;SDS011;70112;45.624;11.760;2024-01-30T14:43:27;41.70;;;28.60;;
71648;SDS011;70112;45.624;11.760;2024-01-30T14:45:53;36.70;;;25.30;;
71648;SDS011;70112;45.624;11.760;2024-01-30T14:48:24;38.00;;;24.20;;
71648;SDS011;70112;45.624;11.760;2024-01-30T14:50:55;36.50;;;24.20;;
71648;SDS011;70112;45.624;11.760;2024-01-30T14:53:21;46.80;;;30.10;;
71648;SDS011;70112;45.624;11.760;2024-01-30T14:55:47;41.40;;;25.60;;
71648;SDS011;70112;45.624;11.760;2024-01-30T14:58:13;38.20;;;25.40;;
71648;SDS011;70112;45.624;11.760;2024-01-30T15:00:44;38.10;;;25.80;;
71648;SDS011;70112;45.624;11.760;2024-01-30T15:03:10;41.90;;;27.30;;
71648;SDS011;70112;45.624;11.760;2024-01-30T15:05:35;35.40;;;24.90;;
71648;SDS011;70112;45.624;11.760;2024-01-30T15:08:01;41.60;;;26.50;;
71648;SDS011;70112;45.624;11.760;2024-01-30T15:10:27;41.10;;;26.40;;
71648;SDS011;70112;45.624;11.760;2024-01-30T15:12:52;43.60;;;28.70;;
71648;SDS011;70112;45.624;11.760;2024-01-30T15:15:18;40.60;;;27.50;;
71648;SDS011;70112;45.624;11.760;2024-01-30T15:17:43;43.90;;;27.90;;
71648;SDS011;70112;45.624;11.760;2024-01-30T15:20:12;41.40;;;26.70;;
71648;SDS011;70112;45.624;11.760;2024-01-30T15:22:41;40.10;;;27.10;;
71648;SDS011;70112;45.624;11.760;2024-01-30T15:25:07;34.00;;;23.90;;
71648;SDS011;70112;45.624;11.760;2024-01-30T15:27:33;37.10;;;25.60;;
71648;SDS011;70112;45.624;11.760;2024-01-30T15:29:59;37.90;;;26.50;;
71648;SDS011;70112;45.624;11.760;2024-01-30T15:32:24;33.20;;;23.40;;
71648;SDS011;70112;45.624;11.760;2024-01-30T15:34:56;36.60;;;24.80;;
71648;SDS011;70112;45.624;11.760;2024-01-30T15:37:26;37.40;;;25.60;;
71648;SDS011;70112;45.624;11.760;2024-01-30T15:39:52;40.10;;;25.60;;
71648;SDS011;70112;45.624;11.760;2024-01-30T15:42:23;38.20;;;26.60;;
71648;SDS011;70112;45.624;11.760;2024-01-30T15:44:49;40.00;;;26.40;;
71648;SDS011;70112;45.624;11.760;2024-01-30T15:47:15;38.20;;;27.00;;
71648;SDS011;70112;45.624;11.760;2024-01-30T15:49:40;35.70;;;26.00;;
71648;SDS011;70112;45.624;11.760;2024-01-30T15:52:06;41.90;;;27.50;;
71648;SDS011;70112;45.624;11.760;2024-01-30T15:57:10;39.40;;;26.40;;
71648;SDS011;70112;45.624;11.760;2024-01-30T15:59:36;41.40;;;28.60;;
71648;SDS011;70112;45.624;11.760;2024-01-30T16:02:02;43.00;;;28.90;;
71648;SDS011;70112;45.624;11.760;2024-01-30T16:04:33;41.00;;;29.30;;
71648;SDS011;70112;45.624;11.760;2024-01-30T16:07:11;41.10;;;29.40;;
71648;SDS011;70112;45.624;11.760;2024-01-30T16:09:37;42.70;;;29.80;;
71648;SDS011;70112;45.624;11.760;2024-01-30T16:12:23;44.50;;;31.40;;
71648;SDS011;70112;45.624;11.760;2024-01-30T16:14:51;41.70;;;30.00;;
71648;SDS011;70112;45.624;11.760;2024-01-30T16:17:26;49.60;;;33.00;;
71648;SDS011;70112;45.624;11.760;2024-01-30T16:19:52;52.00;;;35.80;;
71648;SDS011;70112;45.624;11.760;2024-01-30T16:22:31;53.00;;;36.00;;
71648;SDS011;70112;45.624;11.760;2024-01-30T16:24:57;48.50;;;34.50;;
71648;SDS011;70112;45.624;11.760;2024-01-30T16:27:31;49.40;;;34.80;;
71648;SDS011;70112;45.624;11.760;2024-01-30T16:30:07;49.90;;;34.70;;
71648;SDS011;70112;45.624;11.760;2024-01-30T16:32:34;63.10;;;41.60;;
71648;SDS011;70112;45.624;11.760;2024-01-30T16:35:00;83.20;;;51.70;;
71648;SDS011;70112;45.624;11.760;2024-01-30T16:37:29;82.30;;;50.50;;
71648;SDS011;70112;45.624;11.760;2024-01-30T16:39:55;81.70;;;50.10;;
71648;SDS011;70112;45.624;11.760;2024-01-30T16:43:01;88.20;;;52.10;;
71648;SDS011;70112;45.624;11.760;2024-01-30T16:45:27;93.80;;;56.40;;
71648;SDS011;70112;45.624;11.760;2024-01-30T16:47:54;103.70;;;58.80;;
71648;SDS011;70112;45.624;11.760;2024-01-30T16:50:19;94.60;;;55.00;;
71648;SDS011;70112;45.624;11.760;2024-01-30T16:52:55;96.10;;;55.20;;
71648;SDS011;70112;45.624;11.760;2024-01-30T16:55:32;86.20;;;50.70;;
71648;SDS011;70112;45.624;11.760;2024-01-30T16:58:01;86.10;;;51.50;;
71648;SDS011;70112;45.624;11.760;2024-01-30T17:00:26;89.30;;;52.50;;
71648;SDS011;70112;45.624;11.760;2024-01-30T17:03:12;89.90;;;50.90;;
71648;SDS011;70112;45.624;11.760;2024-01-30T17:05:41;82.80;;;48.00;;
71648;SDS011;70112;45.624;11.760;2024-01-30T17:08:08;77.40;;;45.70;;
71648;SDS011;70112;45.624;11.760;2024-01-30T17:10:50;68.80;;;43.30;;
71648;SDS011;70112;45.624;11.760;2024-01-30T17:13:19;69.30;;;41.50;;
71648;SDS011;70112;45.624;11.760;2024-01-30T17:16:11;65.80;;;41.60;;
71648;SDS011;70112;45.624;11.760;2024-01-30T17:18:40;61.20;;;41.70;;
71648;SDS011;70112;45.624;11.760;2024-01-30T17:24:12;63.90;;;38.40;;
71648;SDS011;70112;45.624;11.760;2024-01-30T17:26:41;59.30;;;39.70;;
71648;SDS011;70112;45.624;11.760;2024-01-30T17:29:09;65.00;;;39.00;;
71648;SDS011;70112;45.624;11.760;2024-01-30T17:31:43;55.90;;;36.40;;
71648;SDS011;70112;45.624;11.760;2024-01-30T17:34:18;52.10;;;33.70;;
71648;SDS011;70112;45.624;11.760;2024-01-30T17:36:44;52.10;;;35.20;;
71648;SDS011;70112;45.624;11.760;2024-01-30T17:39:10;54.40;;;36.10;;
71648;SDS011;70112;45.624;11.760;2024-01-30T17:41:40;55.00;;;36.40;;
71648;SDS011;70112;45.624;11.760;2024-01-30T17:44:17;50.90;;;35.60;;
71648;SDS011;70112;45.624;11.760;2024-01-30T17:46:50;54.80;;;36.50;;
71648;SDS011;70112;45.624;11.760;2024-01-30T17:49:26;50.20;;;37.00;;
71648;SDS011;70112;45.624;11.760;2024-01-30T17:51:59;55.50;;;34.80;;
71648;SDS011;70112;45.624;11.760;2024-01-30T17:54:28;54.10;;;34.60;;
71648;SDS011;70112;45.624;11.760;2024-01-30T17:56:53;52.80;;;34.60;;
71648;SDS011;70112;45.624;11.760;2024-01-30T17:59:21;57.40;;;38.20;;
71648;SDS011;70112;45.624;11.760;2024-01-30T18:01:51;70.10;;;45.80;;
71648;SDS011;70112;45.624;11.760;2024-01-30T18:04:28;68.70;;;45.00;;
71648;SDS011;70112;45.624;11.760;2024-01-30T18:06:54;55.90;;;36.70;;
71648;SDS011;70112;45.624;11.760;2024-01-30T18:09:24;50.90;;;35.80;;
71648;SDS011;70112;45.624;11.760;2024-01-30T18:11:56;56.10;;;36.60;;
71648;SDS011;70112;45.624;11.760;2024-01-30T18:17:19;45.90;;;32.00;;
71648;SDS011;70112;45.624;11.760;2024-01-30T18:20:26;52.10;;;33.80;;
71648;SDS011;70112;45.624;11.760;2024-01-30T18:22:52;45.60;;;32.00;;
71648;SDS011;70112;45.624;11.760;2024-01-30T18:25:17;47.30;;;30.80;;
71648;SDS011;70112;45.624;11.760;2024-01-30T18:28:03;49.60;;;33.10;;
71648;SDS011;70112;45.624;11.760;2024-01-30T18:30:30;46.90;;;30.00;;
71648;SDS011;70112;45.624;11.760;2024-01-30T18:33:02;42.20;;;29.80;;
71648;SDS011;70112;45.624;11.760;2024-01-30T18:35:39;42.90;;;29.40;;
71648;SDS011;70112;45.624;11.760;2024-01-30T18:38:04;51.90;;;32.00;;
71648;SDS011;70112;45.624;11.760;2024-01-30T18:40:40;43.80;;;30.30;;